sensor_id;sensor_type;location;lat;lon;timestamp;pressure;altitude;pressure_sealevel;temperature
76901;BMP280;65859;43.020;25.096;2024-02-23T00:00:23;99028.41;;;5.78
76901;BMP280;65859;43.020;25.096;2024-02-23T00:02:50;99043.28;;;6.15
76901;BMP280;65859;43.020;25.096;2024-02-23T00:05:16;99041.66;;;5.59
76901;BMP280;65859;43.020;25.096;2024-02-23T00:07:42;99035.78;;;5.62
76901;BMP280;65859;43.020;25.096;2024-02-23T00:10:09;99037.47;;;5.58
76901;BMP280;65859;43.020;25.096;2024-02-23T00:12:35;99031.94;;;5.73
76901;BMP280;65859;43.020;25.096;2024-02-23T00:15:01;99035.34;;;5.73
76901;BMP280;65859;43.020;25.096;2024-02-23T00:17:28;99035.56;;;5.44
76901;BMP280;65859;43.020;25.096;2024-02-23T00:19:54;99023.84;;;5.37
76901;BMP280;65859;43.020;25.096;2024-02-23T00:22:20;99021.41;;;5.73
76901;BMP280;65859;43.020;25.096;2024-02-23T00:24:46;99032.16;;;5.90
76901;BMP280;65859;43.020;25.096;2024-02-23T00:27:13;99030.38;;;6.27
76901;BMP280;65859;43.020;25.096;2024-02-23T00:29:39;99017.31;;;6.22
76901;BMP280;65859;43.020;25.096;2024-02-23T00:32:07;99008.94;;;6.20
76901;BMP280;65859;43.020;25.096;2024-02-23T00:34:34;99013.59;;;6.09
76901;BMP280;65859;43.020;25.096;2024-02-23T00:37:00;99011.38;;;5.89
76901;BMP280;65859;43.020;25.096;2024-02-23T00:39:26;99017.88;;;5.78
76901;BMP280;65859;43.020;25.096;2024-02-23T00:41:53;99013.59;;;6.09
76901;BMP280;65859;43.020;25.096;2024-02-23T00:44:19;99014.06;;;5.70
76901;BMP280;65859;43.020;25.096;2024-02-23T00:46:45;99010.38;;;5.57
76901;BMP280;65859;43.020;25.096;2024-02-23T00:49:14;99014.56;;;6.13
76901;BMP280;65859;43.020;25.096;2024-02-23T00:51:40;99009.28;;;6.27
76901;BMP280;65859;43.020;25.096;2024-02-23T00:54:06;99014.88;;;6.25
76901;BMP280;65859;43.020;25.096;2024-02-23T00:56:34;99007.94;;;6.30
76901;BMP280;65859;43.020;25.096;2024-02-23T00:59:01;99001.72;;;6.12
76901;BMP280;65859;43.020;25.096;2024-02-23T01:01:27;99001.09;;;6.28
76901;BMP280;65859;43.020;25.096;2024-02-23T01:03:55;99000.72;;;6.08
76901;BMP280;65859;43.020;25.096;2024-02-23T01:06:23;99005.38;;;5.42
76901;BMP280;65859;43.020;25.096;2024-02-23T01:08:49;99006.78;;;6.08
76901;BMP280;65859;43.020;25.096;2024-02-23T01:11:15;99004.34;;;6.12
76901;BMP280;65859;43.020;25.096;2024-02-23T01:13:42;98999.25;;;5.14
76901;BMP280;65859;43.020;25.096;2024-02-23T01:16:08;98996.16;;;5.12
76901;BMP280;65859;43.020;25.096;2024-02-23T01:18:34;98994.31;;;5.86
76901;BMP280;65859;43.020;25.096;2024-02-23T01:21:00;98994.59;;;5.71
76901;BMP280;65859;43.020;25.096;2024-02-23T01:23:27;98990.88;;;5.72
76901;BMP280;65859;43.020;25.096;2024-02-23T01:25:53;98998.19;;;6.03
76901;BMP280;65859;43.020;25.096;2024-02-23T01:28:19;98985.06;;;5.75
76901;BMP280;65859;43.020;25.096;2024-02-23T01:30:45;98989.94;;;5.82
76901;BMP280;65859;43.020;25.096;2024-02-23T01:33:11;98985.91;;;5.98
76901;BMP280;65859;43.020;25.096;2024-02-23T01:35:39;98989.53;;;6.02
76901;BMP280;65859;43.020;25.096;2024-02-23T01:38:05;98985.44;;;5.82
76901;BMP280;65859;43.020;25.096;2024-02-23T01:40:31;98986.66;;;5.43
76901;BMP280;65859;43.020;25.096;2024-02-23T01:43:07;98987.84;;;5.37
76901;BMP280;65859;43.020;25.096;2024-02-23T01:45:33;98980.91;;;5.55
76901;BMP280;65859;43.020;25.096;2024-02-23T01:47:59;98981.22;;;5.81
76901;BMP280;65859;43.020;25.096;2024-02-23T01:50:27;98980.44;;;5.94
76901;BMP280;65859;43.020;25.096;2024-02-23T01:52:54;98972.75;;;5.57
76901;BMP280;65859;43.020;25.096;2024-02-23T01:55:21;98981.00;;;5.50
76901;BMP280;65859;43.020;25.096;2024-02-23T01:57:48;98974.22;;;4.84
76901;BMP280;65859;43.020;25.096;2024-02-23T02:00:17;98979.19;;;4.66
76901;BMP280;65859;43.020;25.096;2024-02-23T02:02:44;98980.50;;;5.02
76901;BMP280;65859;43.020;25.096;2024-02-23T02:05:11;98973.72;;;5.14
76901;BMP280;65859;43.020;25.096;2024-02-23T02:07:40;98986.34;;;4.98
76901;BMP280;65859;43.020;25.096;2024-02-23T02:10:12;98978.44;;;5.31
76901;BMP280;65859;43.020;25.096;2024-02-23T02:12:38;98990.25;;;5.01
76901;BMP280;65859;43.020;25.096;2024-02-23T02:15:05;98987.31;;;5.35
76901;BMP280;65859;43.020;25.096;2024-02-23T02:17:31;98981.50;;;5.06
76901;BMP280;65859;43.020;25.096;2024-02-23T02:19:59;98975.78;;;4.66
76901;BMP280;65859;43.020;25.096;2024-02-23T02:22:28;98990.47;;;5.05
76901;BMP280;65859;43.020;25.096;2024-02-23T02:24:55;98986.16;;;4.76
76901;BMP280;65859;43.020;25.096;2024-02-23T02:27:21;98982.66;;;4.62
76901;BMP280;65859;43.020;25.096;2024-02-23T02:29:49;98995.06;;;5.13
76901;BMP280;65859;43.020;25.096;2024-02-23T02:32:16;98986.78;;;5.06
76901;BMP280;65859;43.020;25.096;2024-02-23T02:34:42;98982.56;;;4.29
76901;BMP280;65859;43.020;25.096;2024-02-23T02:37:08;98982.88;;;4.28
76901;BMP280;65859;43.020;25.096;2024-02-23T02:39:36;98975.44;;;4.35
76901;BMP280;65859;43.020;25.096;2024-02-23T02:42:02;98988.91;;;4.66
76901;BMP280;65859;43.020;25.096;2024-02-23T02:44:29;98986.97;;;5.09
76901;BMP280;65859;43.020;25.096;2024-02-23T02:46:57;98988.28;;;5.26
76901;BMP280;65859;43.020;25.096;2024-02-23T02:49:24;98982.44;;;5.29
76901;BMP280;65859;43.020;25.096;2024-02-23T02:51:50;98989.97;;;5.03
76901;BMP280;65859;43.020;25.096;2024-02-23T02:54:16;98993.94;;;5.00
76901;BMP280;65859;43.020;25.096;2024-02-23T02:56:44;98992.66;;;4.60
76901;BMP280;65859;43.020;25.096;2024-02-23T02:59:12;98995.88;;;3.66
76901;BMP280;65859;43.020;25.096;2024-02-23T03:01:39;98993.38;;;4.04
76901;BMP280;65859;43.020;25.096;2024-02-23T03:04:05;98994.44;;;3.50
76901;BMP280;65859;43.020;25.096;2024-02-23T03:06:31;99004.38;;;3.82
76901;BMP280;65859;43.020;25.096;2024-02-23T03:08:57;98994.59;;;4.35
76901;BMP280;65859;43.020;25.096;2024-02-23T03:11:25;99001.75;;;4.30
76901;BMP280;65859;43.020;25.096;2024-02-23T03:13:51;99013.41;;;4.61
76901;BMP280;65859;43.020;25.096;2024-02-23T03:16:18;99005.16;;;4.06
76901;BMP280;65859;43.020;25.096;2024-02-23T03:18:45;99003.22;;;4.17
76901;BMP280;65859;43.020;25.096;2024-02-23T03:21:12;98989.59;;;3.91
76901;BMP280;65859;43.020;25.096;2024-02-23T03:23:39;98993.38;;;3.80
76901;BMP280;65859;43.020;25.096;2024-02-23T03:26:07;98989.91;;;4.32
76901;BMP280;65859;43.020;25.096;2024-02-23T03:28:33;98990.13;;;4.55
76901;BMP280;65859;43.020;25.096;2024-02-23T03:31:00;98994.69;;;4.49
76901;BMP280;65859;43.020;25.096;2024-02-23T03:33:27;98987.38;;;4.65
76901;BMP280;65859;43.020;25.096;2024-02-23T03:35:53;98987.63;;;4.44
76901;BMP280;65859;43.020;25.096;2024-02-23T03:38:19;98998.34;;;4.48
76901;BMP280;65859;43.020;25.096;2024-02-23T03:40:45;98994.84;;;4.15
76901;BMP280;65859;43.020;25.096;2024-02-23T03:43:13;98987.41;;;3.50
76901;BMP280;65859;43.020;25.096;2024-02-23T03:45:39;98996.16;;;3.30
76901;BMP280;65859;43.020;25.096;2024-02-23T03:48:06;99003.53;;;3.62
76901;BMP280;65859;43.020;25.096;2024-02-23T03:50:32;99002.97;;;3.89
76901;BMP280;65859;43.020;25.096;2024-02-23T03:52:58;98994.56;;;3.39
76901;BMP280;65859;43.020;25.096;2024-02-23T03:55:25;98988.78;;;3.66
76901;BMP280;65859;43.020;25.096;2024-02-23T03:57:51;98994.34;;;3.60
76901;BMP280;65859;43.020;25.096;2024-02-23T04:00:17;98998.88;;;3.20
76901;BMP280;65859;43.020;25.096;2024-02-23T04:02:46;99001.31;;;3.45
76901;BMP280;65859;43.020;25.096;2024-02-23T04:05:12;99003.66;;;3.47
76901;BMP280;65859;43.020;25.096;2024-02-23T04:07:38;99005.44;;;3.52
76901;BMP280;65859;43.020;25.096;2024-02-23T04:10:05;99002.53;;;4.06
76901;BMP280;65859;43.020;25.096;2024-02-23T04:12:31;99009.91;;;4.28
76901;BMP280;65859;43.020;25.096;2024-02-23T04:14:59;99006.38;;;4.38
76901;BMP280;65859;43.020;25.096;2024-02-23T04:17:25;99005.59;;;4.37
76901;BMP280;65859;43.020;25.096;2024-02-23T04:19:51;99004.94;;;4.03
76901;BMP280;65859;43.020;25.096;2024-02-23T04:22:17;99003.75;;;3.90
76901;BMP280;65859;43.020;25.096;2024-02-23T04:24:43;98999.69;;;4.03
76901;BMP280;65859;43.020;25.096;2024-02-23T04:27:09;99002.44;;;3.34
76901;BMP280;65859;43.020;25.096;2024-02-23T04:29:36;99003.53;;;3.28
76901;BMP280;65859;43.020;25.096;2024-02-23T04:32:02;99004.81;;;3.65
76901;BMP280;65859;43.020;25.096;2024-02-23T04:34:29;99005.28;;;3.38
76901;BMP280;65859;43.020;25.096;2024-02-23T04:36:55;99007.13;;;3.42
76901;BMP280;65859;43.020;25.096;2024-02-23T04:39:22;99013.22;;;3.62
76901;BMP280;65859;43.020;25.096;2024-02-23T04:41:48;99015.91;;;3.52
76901;BMP280;65859;43.020;25.096;2024-02-23T04:44:14;99015.72;;;2.69
76901;BMP280;65859;43.020;25.096;2024-02-23T04:46:42;99011.91;;;2.41
76901;BMP280;65859;43.020;25.096;2024-02-23T04:49:08;99017.97;;;2.91
76901;BMP280;65859;43.020;25.096;2024-02-23T04:51:34;99017.47;;;3.24
76901;BMP280;65859;43.020;25.096;2024-02-23T04:54:00;99024.59;;;3.18
76901;BMP280;65859;43.020;25.096;2024-02-23T04:56:26;99027.09;;;3.33
76901;BMP280;65859;43.020;25.096;2024-02-23T04:58:53;99029.78;;;3.86
76901;BMP280;65859;43.020;25.096;2024-02-23T05:01:19;99025.13;;;3.78
76901;BMP280;65859;43.020;25.096;2024-02-23T05:03:45;99018.47;;;3.62
76901;BMP280;65859;43.020;25.096;2024-02-23T05:06:11;99017.81;;;3.75
76901;BMP280;65859;43.020;25.096;2024-02-23T05:08:39;99020.47;;;3.46
76901;BMP280;65859;43.020;25.096;2024-02-23T05:11:05;99018.47;;;3.62
76901;BMP280;65859;43.020;25.096;2024-02-23T05:13:31;99013.16;;;3.72
76901;BMP280;65859;43.020;25.096;2024-02-23T05:15:57;99025.28;;;3.63
76901;BMP280;65859;43.020;25.096;2024-02-23T05:18:25;99024.69;;;3.71
76901;BMP280;65859;43.020;25.096;2024-02-23T05:20:51;99022.09;;;3.95
76901;BMP280;65859;43.020;25.096;2024-02-23T05:23:17;99018.28;;;3.24
76901;BMP280;65859;43.020;25.096;2024-02-23T05:25:44;99024.16;;;2.56
76901;BMP280;65859;43.020;25.096;2024-02-23T05:28:10;99027.28;;;2.63
76901;BMP280;65859;43.020;25.096;2024-02-23T05:30:36;99039.63;;;2.53
76901;BMP280;65859;43.020;25.096;2024-02-23T05:33:02;99042.69;;;2.70
76901;BMP280;65859;43.020;25.096;2024-02-23T05:35:30;99041.47;;;2.47
76901;BMP280;65859;43.020;25.096;2024-02-23T05:37:56;99041.75;;;2.35
76901;BMP280;65859;43.020;25.096;2024-02-23T05:40:22;99047.09;;;2.00
76901;BMP280;65859;43.020;25.096;2024-02-23T05:42:48;99048.94;;;2.74
76901;BMP280;65859;43.020;25.096;2024-02-23T05:45:14;99048.25;;;3.42
76901;BMP280;65859;43.020;25.096;2024-02-23T05:47:41;99053.59;;;3.27
76901;BMP280;65859;43.020;25.096;2024-02-23T05:50:09;99050.53;;;3.54
76901;BMP280;65859;43.020;25.096;2024-02-23T05:52:36;99053.50;;;4.48
76901;BMP280;65859;43.020;25.096;2024-02-23T05:55:03;99059.38;;;4.40
76901;BMP280;65859;43.020;25.096;2024-02-23T05:57:30;99068.06;;;4.59
76901;BMP280;65859;43.020;25.096;2024-02-23T05:59:56;99068.34;;;5.01
76901;BMP280;65859;43.020;25.096;2024-02-23T06:02:23;99066.19;;;4.84
76901;BMP280;65859;43.020;25.096;2024-02-23T06:04:49;99081.03;;;5.64
76901;BMP280;65859;43.020;25.096;2024-02-23T06:07:15;99080.94;;;5.69
76901;BMP280;65859;43.020;25.096;2024-02-23T06:09:45;99081.28;;;5.95
76901;BMP280;65859;43.020;25.096;2024-02-23T06:12:11;99071.94;;;6.03
76901;BMP280;65859;43.020;25.096;2024-02-23T06:14:37;99089.94;;;6.64
76901;BMP280;65859;43.020;25.096;2024-02-23T06:17:04;99090.34;;;5.75
76901;BMP280;65859;43.020;25.096;2024-02-23T06:19:30;99081.28;;;6.09
76901;BMP280;65859;43.020;25.096;2024-02-23T06:21:57;99088.00;;;6.56
76901;BMP280;65859;43.020;25.096;2024-02-23T06:24:23;99091.28;;;6.62
76901;BMP280;65859;43.020;25.096;2024-02-23T06:26:50;99080.16;;;7.01
76901;BMP280;65859;43.020;25.096;2024-02-23T06:29:17;99086.41;;;7.27
76901;BMP280;65859;43.020;25.096;2024-02-23T06:31:43;99083.78;;;7.05
76901;BMP280;65859;43.020;25.096;2024-02-23T06:34:15;99091.53;;;6.10
76901;BMP280;65859;43.020;25.096;2024-02-23T06:36:42;99098.03;;;5.71
76901;BMP280;65859;43.020;25.096;2024-02-23T06:39:08;99098.91;;;5.67
76901;BMP280;65859;43.020;25.096;2024-02-23T06:41:34;99102.97;;;5.40
76901;BMP280;65859;43.020;25.096;2024-02-23T06:44:01;99103.50;;;5.42
76901;BMP280;65859;43.020;25.096;2024-02-23T06:46:27;99107.25;;;6.29
76901;BMP280;65859;43.020;25.096;2024-02-23T06:48:53;99106.72;;;6.68
76901;BMP280;65859;43.020;25.096;2024-02-23T06:51:19;99095.25;;;7.45
76901;BMP280;65859;43.020;25.096;2024-02-23T06:53:47;99102.03;;;8.00
76901;BMP280;65859;43.020;25.096;2024-02-23T06:56:14;99107.88;;;6.76
76901;BMP280;65859;43.020;25.096;2024-02-23T06:58:40;99091.66;;;7.19
76901;BMP280;65859;43.020;25.096;2024-02-23T07:01:06;99089.34;;;8.10
76901;BMP280;65859;43.020;25.096;2024-02-23T07:03:37;99091.88;;;7.84
76901;BMP280;65859;43.020;25.096;2024-02-23T07:06:03;99095.16;;;7.90
76901;BMP280;65859;43.020;25.096;2024-02-23T07:08:30;99094.72;;;8.80
76901;BMP280;65859;43.020;25.096;2024-02-23T07:10:56;99097.53;;;8.92
76901;BMP280;65859;43.020;25.096;2024-02-23T07:13:23;99098.75;;;9.76
76901;BMP280;65859;43.020;25.096;2024-02-23T07:15:49;99087.94;;;9.52
76901;BMP280;65859;43.020;25.096;2024-02-23T07:18:15;99106.69;;;10.14
76901;BMP280;65859;43.020;25.096;2024-02-23T07:20:42;99105.72;;;10.48
76901;BMP280;65859;43.020;25.096;2024-02-23T07:23:08;99112.28;;;9.83
76901;BMP280;65859;43.020;25.096;2024-02-23T07:25:36;99094.13;;;10.74
76901;BMP280;65859;43.020;25.096;2024-02-23T07:28:02;99092.41;;;10.27
76901;BMP280;65859;43.020;25.096;2024-02-23T07:30:28;99085.09;;;10.87
76901;BMP280;65859;43.020;25.096;2024-02-23T07:32:55;99091.09;;;10.63
76901;BMP280;65859;43.020;25.096;2024-02-23T07:35:21;99096.34;;;11.62
76901;BMP280;65859;43.020;25.096;2024-02-23T07:37:47;99092.94;;;11.74
76901;BMP280;65859;43.020;25.096;2024-02-23T07:40:14;99090.09;;;12.19
76901;BMP280;65859;43.020;25.096;2024-02-23T07:42:40;99086.41;;;12.64
76901;BMP280;65859;43.020;25.096;2024-02-23T07:45:07;99083.25;;;12.59
76901;BMP280;65859;43.020;25.096;2024-02-23T07:47:35;99085.59;;;12.08
76901;BMP280;65859;43.020;25.096;2024-02-23T07:50:01;99088.50;;;12.71
76901;BMP280;65859;43.020;25.096;2024-02-23T07:52:27;99090.13;;;12.07
76901;BMP280;65859;43.020;25.096;2024-02-23T07:54:54;99078.03;;;12.22
76901;BMP280;65859;43.020;25.096;2024-02-23T07:57:22;99081.59;;;13.77
76901;BMP280;65859;43.020;25.096;2024-02-23T07:59:48;99078.28;;;14.18
76901;BMP280;65859;43.020;25.096;2024-02-23T08:02:15;99085.75;;;13.58
76901;BMP280;65859;43.020;25.096;2024-02-23T08:04:41;99077.72;;;13.90
76901;BMP280;65859;43.020;25.096;2024-02-23T08:07:08;99076.97;;;14.90
76901;BMP280;65859;43.020;25.096;2024-02-23T08:09:35;99075.78;;;15.86
76901;BMP280;65859;43.020;25.096;2024-02-23T08:12:01;99079.94;;;15.83
76901;BMP280;65859;43.020;25.096;2024-02-23T08:14:27;99073.38;;;16.82
76901;BMP280;65859;43.020;25.096;2024-02-23T08:16:53;99072.19;;;16.38
76901;BMP280;65859;43.020;25.096;2024-02-23T08:19:19;99075.13;;;16.26
76901;BMP280;65859;43.020;25.096;2024-02-23T08:21:46;99070.88;;;16.99
76901;BMP280;65859;43.020;25.096;2024-02-23T08:24:12;99070.00;;;16.47
76901;BMP280;65859;43.020;25.096;2024-02-23T08:26:38;99072.44;;;16.63
76901;BMP280;65859;43.020;25.096;2024-02-23T08:29:07;99070.59;;;16.34
76901;BMP280;65859;43.020;25.096;2024-02-23T08:31:34;99071.00;;;16.32
76901;BMP280;65859;43.020;25.096;2024-02-23T08:34:01;99068.34;;;16.36
76901;BMP280;65859;43.020;25.096;2024-02-23T08:36:27;99061.59;;;17.48
76901;BMP280;65859;43.020;25.096;2024-02-23T08:38:54;99065.44;;;18.91
76901;BMP280;65859;43.020;25.096;2024-02-23T08:41:21;99060.03;;;19.27
76901;BMP280;65859;43.020;25.096;2024-02-23T08:43:47;99072.28;;;19.53
76901;BMP280;65859;43.020;25.096;2024-02-23T08:46:13;99062.72;;;19.37
76901;BMP280;65859;43.020;25.096;2024-02-23T08:48:40;99067.03;;;18.88
76901;BMP280;65859;43.020;25.096;2024-02-23T08:51:06;99065.69;;;19.68
76901;BMP280;65859;43.020;25.096;2024-02-23T08:53:32;99063.63;;;20.59
76901;BMP280;65859;43.020;25.096;2024-02-23T08:55:58;99083.28;;;22.53
76901;BMP280;65859;43.020;25.096;2024-02-23T08:58:25;99069.13;;;22.46
76901;BMP280;65859;43.020;25.096;2024-02-23T09:00:52;99063.97;;;21.06
76901;BMP280;65859;43.020;25.096;2024-02-23T09:03:18;99063.81;;;21.85
76901;BMP280;65859;43.020;25.096;2024-02-23T09:05:44;99056.53;;;21.51
76901;BMP280;65859;43.020;25.096;2024-02-23T09:08:13;99055.59;;;21.34
76901;BMP280;65859;43.020;25.096;2024-02-23T09:10:39;99068.88;;;20.25
76901;BMP280;65859;43.020;25.096;2024-02-23T09:13:05;99062.00;;;21.78
76901;BMP280;65859;43.020;25.096;2024-02-23T09:15:31;99070.13;;;23.58
76901;BMP280;65859;43.020;25.096;2024-02-23T09:17:58;99064.84;;;23.87
76901;BMP280;65859;43.020;25.096;2024-02-23T09:20:24;99074.72;;;24.75
76901;BMP280;65859;43.020;25.096;2024-02-23T09:22:50;99082.06;;;24.90
76901;BMP280;65859;43.020;25.096;2024-02-23T09:25:18;99083.09;;;25.76
76901;BMP280;65859;43.020;25.096;2024-02-23T09:27:44;99087.41;;;27.24
76901;BMP280;65859;43.020;25.096;2024-02-23T09:30:14;99084.06;;;28.28
76901;BMP280;65859;43.020;25.096;2024-02-23T09:32:42;99085.03;;;27.36
76901;BMP280;65859;43.020;25.096;2024-02-23T09:35:10;99086.06;;;29.24
76901;BMP280;65859;43.020;25.096;2024-02-23T09:37:36;99077.81;;;28.82
76901;BMP280;65859;43.020;25.096;2024-02-23T09:40:07;99078.50;;;27.64
76901;BMP280;65859;43.020;25.096;2024-02-23T09:42:33;99076.81;;;27.67
76901;BMP280;65859;43.020;25.096;2024-02-23T09:45:00;99085.16;;;28.21
76901;BMP280;65859;43.020;25.096;2024-02-23T09:47:28;99071.84;;;27.03
76901;BMP280;65859;43.020;25.096;2024-02-23T09:49:55;99070.66;;;27.75
76901;BMP280;65859;43.020;25.096;2024-02-23T09:52:22;99060.69;;;27.10
76901;BMP280;65859;43.020;25.096;2024-02-23T09:54:48;99063.28;;;27.14
76901;BMP280;65859;43.020;25.096;2024-02-23T09:57:16;99063.72;;;25.49
76901;BMP280;65859;43.020;25.096;2024-02-23T09:59:45;99059.66;;;26.04
76901;BMP280;65859;43.020;25.096;2024-02-23T10:02:15;99059.78;;;26.48
76901;BMP280;65859;43.020;25.096;2024-02-23T10:04:44;99053.00;;;26.31
76901;BMP280;65859;43.020;25.096;2024-02-23T10:07:14;99054.44;;;27.32
76901;BMP280;65859;43.020;25.096;2024-02-23T10:09:40;99052.19;;;26.65
76901;BMP280;65859;43.020;25.096;2024-02-23T10:12:07;99044.56;;;26.03
76901;BMP280;65859;43.020;25.096;2024-02-23T10:14:33;99036.75;;;26.40
76901;BMP280;65859;43.020;25.096;2024-02-23T10:17:00;99036.63;;;26.65
76901;BMP280;65859;43.020;25.096;2024-02-23T10:19:27;99041.16;;;26.90
76901;BMP280;65859;43.020;25.096;2024-02-23T10:21:56;99035.47;;;26.97
76901;BMP280;65859;43.020;25.096;2024-02-23T10:24:23;99031.69;;;27.25
76901;BMP280;65859;43.020;25.096;2024-02-23T10:26:52;99036.25;;;28.78
76901;BMP280;65859;43.020;25.096;2024-02-23T10:29:19;99024.69;;;28.92
76901;BMP280;65859;43.020;25.096;2024-02-23T10:31:47;99027.97;;;28.45
76901;BMP280;65859;43.020;25.096;2024-02-23T10:34:18;99015.31;;;29.50
76901;BMP280;65859;43.020;25.096;2024-02-23T10:36:46;99016.88;;;29.66
76901;BMP280;65859;43.020;25.096;2024-02-23T10:39:17;99013.97;;;29.69
76901;BMP280;65859;43.020;25.096;2024-02-23T10:42:07;99008.50;;;30.37
76901;BMP280;65859;43.020;25.096;2024-02-23T10:44:35;99003.25;;;30.49
76901;BMP280;65859;43.020;25.096;2024-02-23T10:47:04;99004.25;;;30.81
76901;BMP280;65859;43.020;25.096;2024-02-23T10:49:31;99013.44;;;29.80
76901;BMP280;65859;43.020;25.096;2024-02-23T10:51:59;99011.56;;;30.54
76901;BMP280;65859;43.020;25.096;2024-02-23T10:54:26;99008.97;;;30.95
76901;BMP280;65859;43.020;25.096;2024-02-23T10:56:53;99006.81;;;31.19
76901;BMP280;65859;43.020;25.096;2024-02-23T10:59:21;99006.56;;;33.46
76901;BMP280;65859;43.020;25.096;2024-02-23T11:01:49;99004.91;;;34.49
76901;BMP280;65859;43.020;25.096;2024-02-23T11:04:18;99009.44;;;33.96
76901;BMP280;65859;43.020;25.096;2024-02-23T11:06:55;99022.16;;;33.71
76901;BMP280;65859;43.020;25.096;2024-02-23T11:09:25;99011.06;;;33.01
76901;BMP280;65859;43.020;25.096;2024-02-23T11:11:59;99016.13;;;33.73
76901;BMP280;65859;43.020;25.096;2024-02-23T11:14:38;99012.56;;;33.50
76901;BMP280;65859;43.020;25.096;2024-02-23T11:17:05;99008.41;;;33.99
76901;BMP280;65859;43.020;25.096;2024-02-23T11:19:36;99002.16;;;34.43
76901;BMP280;65859;43.020;25.096;2024-02-23T11:22:03;99001.88;;;33.69
76901;BMP280;65859;43.020;25.096;2024-02-23T11:24:31;99002.28;;;31.36
76901;BMP280;65859;43.020;25.096;2024-02-23T11:27:01;98991.31;;;33.62
76901;BMP280;65859;43.020;25.096;2024-02-23T11:29:34;99001.78;;;32.93
76901;BMP280;65859;43.020;25.096;2024-02-23T11:32:02;98998.00;;;30.95
76901;BMP280;65859;43.020;25.096;2024-02-23T11:34:31;98990.78;;;35.49
76901;BMP280;65859;43.020;25.096;2024-02-23T11:36:57;98989.56;;;36.40
76901;BMP280;65859;43.020;25.096;2024-02-23T11:39:26;98993.22;;;33.28
76901;BMP280;65859;43.020;25.096;2024-02-23T11:41:53;98981.22;;;34.98
76901;BMP280;65859;43.020;25.096;2024-02-23T11:44:20;98981.03;;;37.05
76901;BMP280;65859;43.020;25.096;2024-02-23T11:46:47;98974.00;;;37.04
76901;BMP280;65859;43.020;25.096;2024-02-23T11:49:15;98980.88;;;36.55
76901;BMP280;65859;43.020;25.096;2024-02-23T11:51:42;98972.13;;;36.69
76901;BMP280;65859;43.020;25.096;2024-02-23T11:54:09;98965.81;;;36.01
76901;BMP280;65859;43.020;25.096;2024-02-23T11:56:35;98965.63;;;36.24
76901;BMP280;65859;43.020;25.096;2024-02-23T11:59:02;98960.53;;;36.28
76901;BMP280;65859;43.020;25.096;2024-02-23T12:01:31;98956.69;;;36.55
76901;BMP280;65859;43.020;25.096;2024-02-23T12:03:58;98945.72;;;38.20
76901;BMP280;65859;43.020;25.096;2024-02-23T12:06:25;98947.91;;;37.50
76901;BMP280;65859;43.020;25.096;2024-02-23T12:08:55;98943.69;;;35.72
76901;BMP280;65859;43.020;25.096;2024-02-23T12:11:23;98932.03;;;34.28
76901;BMP280;65859;43.020;25.096;2024-02-23T12:13:49;98922.00;;;35.46
76901;BMP280;65859;43.020;25.096;2024-02-23T12:16:17;98914.16;;;36.82
76901;BMP280;65859;43.020;25.096;2024-02-23T12:18:43;98900.56;;;35.93
76901;BMP280;65859;43.020;25.096;2024-02-23T12:21:10;98886.91;;;37.05
76901;BMP280;65859;43.020;25.096;2024-02-23T12:26:08;98874.38;;;36.24
76901;BMP280;65859;43.020;25.096;2024-02-23T12:28:35;98868.44;;;31.20
76901;BMP280;65859;43.020;25.096;2024-02-23T12:31:03;98856.66;;;27.67
76901;BMP280;65859;43.020;25.096;2024-02-23T12:33:35;98854.94;;;25.69
76901;BMP280;65859;43.020;25.096;2024-02-23T12:36:03;98851.56;;;24.54
76901;BMP280;65859;43.020;25.096;2024-02-23T12:38:30;98845.72;;;23.53
76901;BMP280;65859;43.020;25.096;2024-02-23T12:40:56;98842.63;;;24.41
76901;BMP280;65859;43.020;25.096;2024-02-23T12:43:24;98842.25;;;23.52
76901;BMP280;65859;43.020;25.096;2024-02-23T12:45:54;98836.50;;;23.34
76901;BMP280;65859;43.020;25.096;2024-02-23T12:48:21;98834.44;;;22.89
76901;BMP280;65859;43.020;25.096;2024-02-23T12:50:48;98837.41;;;22.59
76901;BMP280;65859;43.020;25.096;2024-02-23T12:53:37;98837.06;;;22.57
76901;BMP280;65859;43.020;25.096;2024-02-23T12:56:06;98832.38;;;22.41
76901;BMP280;65859;43.020;25.096;2024-02-23T12:58:37;98836.88;;;22.48
76901;BMP280;65859;43.020;25.096;2024-02-23T13:01:04;98831.03;;;22.29
76901;BMP280;65859;43.020;25.096;2024-02-23T13:03:32;98823.75;;;22.26
76901;BMP280;65859;43.020;25.096;2024-02-23T13:05:59;98824.09;;;22.09
76901;BMP280;65859;43.020;25.096;2024-02-23T13:08:27;98823.13;;;21.25
76901;BMP280;65859;43.020;25.096;2024-02-23T13:10:54;98822.63;;;21.07
76901;BMP280;65859;43.020;25.096;2024-02-23T13:13:21;98818.13;;;20.97
76901;BMP280;65859;43.020;25.096;2024-02-23T13:15:50;98817.22;;;20.80
76901;BMP280;65859;43.020;25.096;2024-02-23T13:18:17;98815.53;;;20.59
76901;BMP280;65859;43.020;25.096;2024-02-23T13:20:43;98807.66;;;20.76
76901;BMP280;65859;43.020;25.096;2024-02-23T13:23:11;98813.56;;;20.63
76901;BMP280;65859;43.020;25.096;2024-02-23T13:25:39;98805.72;;;21.03
76901;BMP280;65859;43.020;25.096;2024-02-23T13:28:06;98800.97;;;20.84
76901;BMP280;65859;43.020;25.096;2024-02-23T13:30:33;98802.25;;;20.76
76901;BMP280;65859;43.020;25.096;2024-02-23T13:33:00;98803.78;;;20.77
76901;BMP280;65859;43.020;25.096;2024-02-23T13:35:27;98806.22;;;20.64
76901;BMP280;65859;43.020;25.096;2024-02-23T13:37:53;98807.53;;;20.52
76901;BMP280;65859;43.020;25.096;2024-02-23T13:40:20;98807.28;;;20.43
76901;BMP280;65859;43.020;25.096;2024-02-23T13:42:47;98797.66;;;20.38
76901;BMP280;65859;43.020;25.096;2024-02-23T13:45:16;98799.34;;;20.59
76901;BMP280;65859;43.020;25.096;2024-02-23T13:47:56;98798.97;;;20.61
76901;BMP280;65859;43.020;25.096;2024-02-23T13:50:22;98802.66;;;20.40
76901;BMP280;65859;43.020;25.096;2024-02-23T13:52:49;98806.13;;;20.40
76901;BMP280;65859;43.020;25.096;2024-02-23T13:55:15;98798.16;;;20.30
76901;BMP280;65859;43.020;25.096;2024-02-23T13:57:42;98795.91;;;20.25
76901;BMP280;65859;43.020;25.096;2024-02-23T14:00:09;98799.38;;;20.25
76901;BMP280;65859;43.020;25.096;2024-02-23T14:02:38;98802.19;;;20.11
76901;BMP280;65859;43.020;25.096;2024-02-23T14:05:08;98806.41;;;20.12